Time;durP1;ratioP1;P1;durP2;ratioP2;P2;SDS_P1;SDS_P2;PMS_P1;PMS_P2;Temp;Humidity;BMP_temperature;BMP_pressure;BME280_temperature;BME280_humidity;BME280_pressure;Samples;Min_cycle;Max_cycle;Signal;HPM_P1;HPM_P2
2021/07/20 04:33:37;;;;;;;12.48;9.70;;;17.10;95.20;;;;;;6163158;23;20210;-90
2021/07/20 04:43:04;;;;;;;11.88;9.90;;;17.20;94.80;;;;;;6158536;23;20166;-89
2021/07/20 04:45:32;;;;;;;10.98;8.95;;;17.30;94.60;;;;;;6159128;23;20203;-91
2021/07/20 04:58:36;;;;;;;11.48;9.38;;;17.80;93.50;;;;;;6160395;23;20195;-90
2021/07/20 05:01:04;;;;;;;13.93;9.80;;;18.00;92.90;;;;;;6153128;23;20650;-90
2021/07/20 05:14:31;;;;;;;11.68;10.43;;;18.20;91.70;;;;;;6163791;23;20164;-90
2021/07/20 05:20:23;;;;;;;12.55;9.82;;;18.10;91.20;;;;;;6162632;23;20178;-89
2021/07/20 05:23:32;;;;;;;12.88;10.27;;;18.30;90.50;;;;;;6157047;23;20272;-91
2021/07/20 05:40:00;;;;;;;12.35;9.30;;;18.20;87.00;;;;;;6165786;23;20490;-90
2021/07/20 05:42:29;;;;;;;12.05;9.88;;;18.30;85.30;;;;;;6158227;23;20242;-90
2021/07/20 05:45:39;;;;;;;13.57;9.90;;;18.20;82.10;;;;;;6157044;23;20271;-90
2021/07/20 05:48:07;;;;;;;13.13;9.15;;;18.20;80.20;;;;;;6157850;23;20205;-90
2021/07/20 05:50:36;;;;;;;13.85;9.98;;;18.30;80.90;;;;;;6157024;23;20230;-90
2021/07/20 05:53:03;;;;;;;11.82;9.35;;;18.40;79.70;;;;;;6157723;23;20251;-90
2021/07/20 05:55:32;;;;;;;12.27;9.68;;;18.60;78.30;;;;;;6156873;23;20274;-89
2021/07/20 05:58:01;;;;;;;12.30;10.35;;;18.90;80.00;;;;;;6157273;23;20286;-90
2021/07/20 06:00:29;;;;;;;16.85;10.52;;;19.10;76.60;;;;;;6155381;23;20278;-90
2021/07/20 06:02:58;;;;;;;14.13;10.15;;;19.10;75.80;;;;;;6155713;23;20500;-91
2021/07/20 06:05:27;;;;;;;13.38;10.02;;;19.10;75.60;;;;;;6153306;23;20290;-90
2021/07/20 06:07:55;;;;;;;13.25;10.45;;;19.20;75.30;;;;;;6154342;23;20578;-91
2021/07/20 06:10:24;;;;;;;12.15;9.82;;;19.20;76.20;;;;;;6154139;23;20550;-90
2021/07/20 06:16:34;;;;;;;12.88;9.63;;;19.20;76.50;;;;;;6159279;23;20178;-89
2021/07/20 06:19:19;;;;;;;15.20;9.98;;;19.10;75.90;;;;;;6157214;23;20199;-90
2021/07/20 06:21:48;;;;;;;13.52;9.95;;;19.10;75.60;;;;;;6158673;23;20674;-90
2021/07/20 06:24:16;;;;;;;18.42;10.15;;;19.10;75.60;;;;;;6158025;23;20585;-90
2021/07/20 06:27:19;;;;;;;15.95;9.60;;;19.20;76.20;;;;;;6158729;23;20248;-90
2021/07/20 06:29:48;;;;;;;10.88;9.20;;;19.20;75.40;;;;;;6158460;23;20662;-89
2021/07/20 06:32:18;;;;;;;12.68;9.70;;;19.30;72.70;;;;;;6158175;23;20199;-91
2021/07/20 06:34:45;;;;;;;14.10;9.02;;;19.40;73.00;;;;;;6156863;23;20203;-91
2021/07/20 06:40:34;;;;;;;12.65;9.05;;;19.40;72.70;;;;;;6158804;23;20573;-92
2021/07/20 06:43:01;;;;;;;11.93;9.30;;;19.50;72.70;;;;;;6158610;23;20253;-90
2021/07/20 06:45:28;;;;;;;15.77;9.32;;;19.60;69.50;;;;;;6157955;23;20584;-90
2021/07/20 06:47:57;;;;;;;12.73;9.38;;;19.60;72.00;;;;;;6158150;23;20706;-91
2021/07/20 06:50:24;;;;;;;13.32;9.70;;;19.70;68.40;;;;;;6157713;23;20237;-90
2021/07/20 06:52:51;;;;;;;12.07;9.98;;;19.70;68.40;;;;;;6158942;23;20182;-89
2021/07/20 06:55:21;;;;;;;15.65;10.20;;;19.80;67.40;;;;;;6158167;23;20566;-90
2021/07/20 06:57:49;;;;;;;15.32;10.77;;;20.00;67.00;;;;;;6161080;23;20211;-89
2021/07/20 07:00:18;;;;;;;11.63;9.38;;;20.00;64.40;;;;;;6163261;23;20223;-88
2021/07/20 07:02:49;;;;;;;13.93;9.52;;;20.00;66.20;;;;;;6164187;23;20580;-90
2021/07/20 07:46:35;;;;;;;14.13;8.88;;;21.60;50.20;;;;;;6159842;23;20159;-90
2021/07/20 07:49:02;;;;;;;13.10;9.10;;;21.60;48.40;;;;;;6170115;23;20229;-85
2021/07/20 07:51:30;;;;;;;10.50;8.48;;;21.60;48.60;;;;;;6169382;23;20164;-89
2021/07/20 07:57:59;;;;;;;17.17;9.43;;;21.70;46.90;;;;;;6161195;23;20600;-89
2021/07/20 08:00:29;;;;;;;13.23;9.07;;;21.80;46.10;;;;;;6161483;23;20210;-86
2021/07/20 08:03:00;;;;;;;10.75;8.38;;;21.90;44.40;;;;;;6161185;23;20195;-88
2021/07/20 08:05:54;;;;;;;10.25;8.15;;;22.10;46.10;;;;;;6161648;23;20234;-86
2021/07/20 08:08:40;;;;;;;9.60;7.93;;;22.30;46.50;;;;;;6165806;23;20191;-89
2021/07/20 08:11:11;;;;;;;10.63;8.32;;;22.30;43.70;;;;;;6166240;23;20190;-88
2021/07/20 08:20:33;;;;;;;12.35;8.93;;;22.70;40.80;;;;;;6167693;23;20172;-88
2021/07/20 08:23:00;;;;;;;10.30;7.85;;;23.00;38.10;;;;;;6159306;23;20246;-89
2021/07/20 08:25:30;;;;;;;10.10;7.53;;;23.30;35.90;;;;;;6139282;23;20218;-87
2021/07/20 08:28:04;;;;;;;9.25;7.10;;;24.20;36.10;;;;;;6157104;23;20559;-86
2021/07/20 08:30:35;;;;;;;10.52;7.40;;;25.40;30.40;;;;;;6152857;23;20218;-89
2021/07/20 08:33:12;;;;;;;9.93;7.75;;;26.40;27.00;;;;;;6157512;23;20169;-89
2021/07/20 08:35:42;;;;;;;11.57;7.75;;;26.00;25.60;;;;;;6157997;23;20221;-89
2021/07/20 08:38:11;;;;;;;9.25;7.15;;;26.10;25.10;;;;;;6160251;23;20857;-89
2021/07/20 08:40:54;;;;;;;8.07;7.28;;;25.70;24.60;;;;;;6159519;23;20281;-90
2021/07/20 08:43:32;;;;;;;10.48;8.30;;;25.40;25.20;;;;;;6159534;23;20323;-93
2021/07/20 08:46:10;;;;;;;10.05;8.65;;;25.40;27.40;;;;;;6163112;23;20213;-89
2021/07/20 08:48:47;;;;;;;8.63;7.72;;;25.90;26.40;;;;;;6163358;23;20282;-88
2021/07/20 08:54:13;;;;;;;11.52;7.22;;;27.20;23.50;;;;;;6157193;23;20210;-88
2021/07/20 08:57:32;;;;;;;9.27;8.32;;;29.20;21.20;;;;;;6157699;23;20262;-89
2021/07/20 09:00:05;;;;;;;10.65;7.80;;;30.30;17.90;;;;;;6156336;23;20281;-90
2021/07/20 09:06:03;;;;;;;10.02;7.90;;;33.10;15.10;;;;;;6042839;23;20744;-88
2021/07/20 09:08:37;;;;;;;10.98;8.95;;;33.70;14.30;;;;;;6155993;23;20230;-89
2021/07/20 09:11:11;;;;;;;12.55;9.18;;;34.30;13.20;;;;;;6155504;23;20183;-89
2021/07/20 09:13:44;;;;;;;9.38;8.48;;;33.80;12.70;;;;;;6156478;23;20158;-89
2021/07/20 09:16:13;;;;;;;11.23;8.30;;;33.60;13.20;;;;;;6156706;23;20179;-88
2021/07/20 09:18:45;;;;;;;12.35;9.23;;;35.20;11.80;;;;;;6157222;23;20503;-89
2021/07/20 09:25:26;;;;;;;10.93;8.95;;;36.10;10.80;;;;;;6158535;23;20489;-89
2021/07/20 09:28:00;;;;;;;9.60;8.60;;;33.90;13.00;;;;;;6156938;23;20257;-89
2021/07/20 09:30:31;;;;;;;10.50;8.80;;;32.90;15.10;;;;;;6156382;23;20285;-89
2021/07/20 09:33:41;;;;;;;11.45;9.40;;;32.40;17.00;;;;;;6157192;23;20242;-88
2021/07/20 09:39:35;;;;;;;10.27;9.00;;;32.70;14.60;;;;;;6156361;23;20190;-89
2021/07/20 09:42:09;;;;;;;10.82;9.75;;;33.10;14.30;;;;;;6154327;23;20694;-89
2021/07/20 09:44:45;;;;;;;14.20;9.63;;;32.90;16.20;;;;;;6155492;23;20198;-89
2021/07/20 09:49:50;;;;;;;12.07;10.30;;;33.80;14.60;;;;;;6158164;23;20207;-88
2021/07/20 09:52:55;;;;;;;11.90;10.63;;;34.70;13.20;;;;;;6159928;23;20634;-88
2021/07/20 09:58:34;;;;;;;10.65;9.60;;;33.50;14.00;;;;;;6156478;23;20214;-89
2021/07/20 10:01:17;;;;;;;10.65;9.57;;;33.90;14.50;;;;;;6155160;23;20274;-89
2021/07/20 10:07:05;;;;;;;11.85;10.48;;;35.70;12.80;;;;;;6157789;23;20162;-88
2021/07/20 10:09:38;;;;;;;10.73;9.70;;;35.40;10.60;;;;;;6157307;23;20179;-88
2021/07/20 10:12:11;;;;;;;12.77;11.38;;;35.30;12.50;;;;;;6131026;23;20190;-88
2021/07/20 10:14:47;;;;;;;11.52;10.50;;;35.40;11.80;;;;;;6156574;23;20281;-87
2021/07/20 10:20:16;;;;;;;11.80;10.70;;;33.30;14.90;;;;;;6160057;23;20654;-90
2021/07/20 10:22:47;;;;;;;13.45;10.73;;;32.10;15.90;;;;;;6161070;23;20167;-91
2021/07/20 10:25:32;;;;;;;11.70;10.55;;;30.60;16.90;;;;;;6158663;23;20211;-90
2021/07/20 10:28:05;;;;;;;12.32;10.90;;;29.90;20.10;;;;;;6159731;23;20167;-91
2021/07/20 10:30:36;;;;;;;11.68;10.45;;;29.00;20.80;;;;;;6160491;23;20241;-89
2021/07/20 10:33:40;;;;;;;13.30;10.80;;;29.00;25.40;;;;;;6160900;23;20164;-88
2021/07/20 10:40:00;;;;;;;12.88;11.55;;;31.10;20.00;;;;;;6166711;23;20194;-89
2021/07/20 10:46:11;;;;;;;11.80;10.63;;;32.40;16.40;;;;;;6164653;23;20186;-89
2021/07/20 10:48:44;;;;;;;12.40;11.27;;;33.70;15.20;;;;;;6158328;23;20291;-89
2021/07/20 10:58:05;;;;;;;12.73;11.52;;;30.50;16.90;;;;;;6162206;23;20162;-90
2021/07/20 11:00:45;;;;;;;12.00;10.80;;;30.60;17.90;;;;;;6163746;23;20211;-90
2021/07/20 11:03:22;;;;;;;14.43;11.35;;;30.70;19.10;;;;;;6156814;23;20323;-90
2021/07/20 11:05:52;;;;;;;13.82;11.30;;;29.30;19.60;;;;;;6154691;23;20253;-89
2021/07/20 11:08:20;;;;;;;12.98;10.13;;;29.90;20.90;;;;;;6155576;23;20214;-88
2021/07/20 11:10:51;;;;;;;13.38;11.98;;;29.80;20.10;;;;;;6154876;23;20303;-89
2021/07/20 11:13:22;;;;;;;12.90;11.57;;;29.50;19.10;;;;;;6157549;23;20163;-88
2021/07/20 11:15:54;;;;;;;13.23;11.35;;;29.10;21.60;;;;;;6158713;23;20241;-87
2021/07/20 11:18:25;;;;;;;13.50;12.10;;;29.10;24.30;;;;;;6158879;23;20181;-87
2021/07/20 11:20:59;;;;;;;13.13;11.40;;;28.90;20.50;;;;;;6160126;23;20233;-87
2021/07/20 11:23:27;;;;;;;13.80;12.00;;;28.60;24.70;;;;;;6154493;23;20682;-89
2021/07/20 11:26:15;;;;;;;12.25;11.05;;;28.00;24.00;;;;;;6160353;23;20246;-90
2021/07/20 11:32:33;;;;;;;15.43;11.93;;;26.30;26.90;;;;;;6159287;23;20154;-88
2021/07/20 11:35:04;;;;;;;15.68;12.30;;;26.40;27.10;;;;;;6158914;23;20194;-87
2021/07/20 11:37:37;;;;;;;12.68;10.52;;;26.80;27.40;;;;;;6158611;23;20194;-86
2021/07/20 11:40:42;;;;;;;12.55;11.25;;;27.20;27.40;;;;;;6164181;23;20199;-89
2021/07/20 11:44:00;;;;;;;17.05;13.23;;;28.00;27.40;;;;;;6158539;23;20193;-87
2021/07/20 12:19:11;;;;;;;15.65;13.30;;;27.60;24.70;;;;;;6168646;23;20269;-88
2021/07/20 12:21:40;;;;;;;16.63;13.85;;;27.30;25.40;;;;;;6158261;23;20552;-89
2021/07/20 12:24:08;;;;;;;15.23;13.73;;;27.50;26.00;;;;;;6162736;23;20173;-89
2021/07/20 12:26:51;;;;;;;15.50;13.45;;;27.40;23.60;;;;;;6156851;23;20171;-90
2021/07/20 12:29:22;;;;;;;17.33;13.77;;;27.60;26.10;;;;;;6156435;23;20659;-88
2021/07/20 12:31:50;;;;;;;15.10;13.50;;;27.20;25.80;;;;;;6157431;23;20187;-89
2021/07/20 12:34:20;;;;;;;15.65;13.85;;;26.60;29.50;;;;;;6155058;23;20688;-89
2021/07/20 12:36:47;;;;;;;16.85;13.70;;;26.90;27.30;;;;;;6155829;23;20238;-89
2021/07/20 12:39:16;;;;;;;16.92;14.55;;;26.90;27.50;;;;;;6155864;23;20577;-88
2021/07/20 12:41:48;;;;;;;16.70;14.20;;;26.90;27.30;;;;;;6157065;23;20186;-87
2021/07/20 12:44:16;;;;;;;16.40;13.82;;;26.60;28.00;;;;;;6154002;23;20206;-87
2021/07/20 12:46:44;;;;;;;17.70;14.02;;;26.30;29.60;;;;;;6154647;23;20254;-88
2021/07/20 12:49:12;;;;;;;15.90;13.88;;;26.20;28.00;;;;;;6153413;23;20235;-88
2021/07/20 12:52:07;;;;;;;15.23;13.63;;;26.20;29.00;;;;;;6156363;23;20207;-87
2021/07/20 13:05:11;;;;;;;17.05;13.68;;;26.00;29.00;;;;;;6164768;23;20473;-87
2021/07/20 13:07:39;;;;;;;17.10;13.68;;;26.00;29.60;;;;;;6157916;23;20179;-87
2021/07/20 13:10:10;;;;;;;17.17;15.27;;;26.10;31.20;;;;;;6163522;23;20178;-88
2021/07/20 13:16:05;;;;;;;18.30;14.75;;;25.70;28.60;;;;;;6157423;23;20202;-90
2021/07/20 13:18:35;;;;;;;16.20;14.10;;;25.60;31.40;;;;;;6157631;23;20254;-89
2021/07/20 13:21:03;;;;;;;18.42;14.32;;;25.90;32.30;;;;;;6166371;23;20245;-86
2021/07/20 14:00:23;;;;;;;18.67;14.65;;;25.90;30.40;;;;;;6142629;23;20207;-90
2021/07/20 14:02:52;;;;;;;17.38;15.32;;;25.90;30.40;;;;;;6158862;23;20501;-89
2021/07/20 14:05:20;;;;;;;17.10;15.15;;;25.90;29.70;;;;;;6160694;23;20230;-89
2021/07/20 14:07:52;;;;;;;16.25;14.55;;;25.90;29.30;;;;;;6163447;23;20187;-89
2021/07/20 14:10:20;;;;;;;17.83;14.77;;;25.90;29.30;;;;;;6167155;23;20571;-89
2021/07/20 14:12:48;;;;;;;16.13;14.38;;;26.00;30.30;;;;;;6160632;23;20201;-90
2021/07/20 14:15:15;;;;;;;15.60;14.00;;;25.90;29.70;;;;;;6160206;23;20226;-90
2021/07/20 14:17:45;;;;;;;16.40;14.65;;;25.80;30.00;;;;;;6160761;23;20283;-89
2021/07/20 14:20:12;;;;;;;20.13;15.45;;;25.60;29.00;;;;;;6160454;23;20203;-89
2021/07/20 14:37:06;;;;;;;19.95;15.88;;;25.20;29.60;;;;;;6159455;23;20171;-89
2021/07/20 14:39:38;;;;;;;16.90;14.63;;;25.20;30.00;;;;;;6165763;23;20198;-90
2021/07/20 14:42:20;;;;;;;17.27;14.95;;;25.10;29.40;;;;;;6160555;23;20160;-92
2021/07/20 14:48:32;;;;;;;18.23;15.10;;;24.80;30.90;;;;;;6165404;23;20185;-88
2021/07/20 14:51:04;;;;;;;16.45;13.90;;;24.90;32.50;;;;;;6162511;23;20246;-88
2021/07/20 14:53:32;;;;;;;19.73;15.27;;;25.10;30.60;;;;;;6163800;23;20243;-91
2021/07/20 14:59:52;;;;;;;16.90;14.15;;;24.90;30.10;;;;;;6167850;23;20271;-87
2021/07/20 15:09:37;;;;;;;19.50;15.15;;;25.00;31.60;;;;;;6166878;23;20210;-88
2021/07/20 15:12:05;;;;;;;16.30;14.27;;;24.80;32.90;;;;;;6165275;23;20230;-91
2021/07/20 15:14:34;;;;;;;19.00;15.77;;;24.90;31.50;;;;;;6163029;23;20222;-89
2021/07/20 15:23:19;;;;;;;17.67;15.10;;;24.90;29.60;;;;;;6162304;23;20186;-90
2021/07/20 15:25:46;;;;;;;17.45;15.20;;;24.60;31.30;;;;;;6158657;23;20576;-89
2021/07/20 15:28:18;;;;;;;19.83;15.38;;;24.60;31.40;;;;;;6161300;23;20163;-90
2021/07/20 15:30:46;;;;;;;16.60;14.85;;;24.60;31.60;;;;;;6160740;23;20290;-89
2021/07/20 15:33:16;;;;;;;18.05;15.35;;;24.60;32.40;;;;;;6160898;23;20210;-89
2021/07/20 15:35:43;;;;;;;17.55;15.70;;;24.50;31.60;;;;;;6161346;23;20227;-90
2021/07/20 15:38:10;;;;;;;18.60;14.43;;;24.50;32.90;;;;;;6163331;23;20221;-89
2021/07/20 15:40:37;;;;;;;18.60;15.32;;;24.60;31.90;;;;;;6162607;23;20262;-90
2021/07/20 15:43:04;;;;;;;20.13;15.73;;;24.50;31.10;;;;;;6162365;23;20203;-89
2021/07/20 15:45:31;;;;;;;17.92;15.30;;;24.50;33.40;;;;;;6162072;23;20270;-89
2021/07/20 15:48:00;;;;;;;20.63;15.38;;;24.70;32.00;;;;;;6163320;23;20221;-89
2021/07/20 15:50:31;;;;;;;17.50;15.20;;;24.60;30.50;;;;;;6136650;23;20286;-89
2021/07/20 15:53:02;;;;;;;16.75;14.70;;;24.60;30.90;;;;;;6163259;23;20451;-89
2021/07/20 15:55:31;;;;;;;19.30;15.02;;;24.70;31.60;;;;;;6162583;23;20231;-89
2021/07/20 15:58:01;;;;;;;20.00;15.40;;;24.60;31.60;;;;;;6163187;23;20171;-89
2021/07/20 16:00:33;;;;;;;17.27;15.10;;;24.60;31.70;;;;;;6162095;23;20207;-89
2021/07/20 16:03:00;;;;;;;16.77;14.70;;;24.50;32.00;;;;;;6167219;23;20192;-89
2021/07/20 16:05:30;;;;;;;17.52;14.88;;;24.50;30.90;;;;;;6167778;23;20214;-87
2021/07/20 16:07:58;;;;;;;17.67;14.13;;;24.50;31.90;;;;;;6169843;23;20179;-88
2021/07/20 16:10:26;;;;;;;18.20;15.13;;;24.40;31.30;;;;;;6165486;23;20206;-87
2021/07/20 16:12:56;;;;;;;19.02;15.48;;;24.30;30.60;;;;;;6167178;23;20175;-89
2021/07/20 16:15:26;;;;;;;17.85;15.48;;;24.30;31.40;;;;;;6165412;23;20258;-88
2021/07/20 16:17:58;;;;;;;16.70;14.25;;;24.20;31.80;;;;;;6165300;23;20191;-89
2021/07/20 16:20:37;;;;;;;17.92;14.30;;;24.30;31.20;;;;;;6165997;23;20266;-85
2021/07/20 16:23:08;;;;;;;18.92;15.23;;;24.20;31.30;;;;;;6167972;23;20171;-88
2021/07/20 16:25:38;;;;;;;18.75;14.77;;;24.20;32.90;;;;;;6165606;23;20231;-87
2021/07/20 16:28:15;;;;;;;18.45;16.17;;;24.20;32.90;;;;;;6164357;23;20163;-84
2021/07/20 16:30:47;;;;;;;18.13;14.30;;;24.10;33.10;;;;;;6163925;23;20230;-85
2021/07/20 16:33:16;;;;;;;22.52;15.82;;;24.10;34.00;;;;;;6163117;23;20191;-88
2021/07/20 16:35:46;;;;;;;18.50;14.88;;;24.10;31.20;;;;;;6161828;23;20210;-88
2021/07/20 16:38:19;;;;;;;17.90;14.52;;;24.10;32.50;;;;;;6162257;23;20186;-87
2021/07/20 16:40:47;;;;;;;18.58;15.00;;;24.00;33.60;;;;;;6161051;23;20238;-86
2021/07/20 16:43:19;;;;;;;20.00;14.70;;;24.00;31.60;;;;;;6137129;23;20494;-85
2021/07/20 16:45:51;;;;;;;19.85;14.48;;;23.90;32.60;;;;;;6161022;23;20203;-87
2021/07/20 16:48:19;;;;;;;16.88;14.02;;;23.70;34.90;;;;;;6164010;23;20227;-88
2021/07/20 16:50:50;;;;;;;17.45;14.32;;;23.70;34.60;;;;;;6162855;23;20229;-84
2021/07/20 16:53:18;;;;;;;21.92;15.63;;;23.60;32.20;;;;;;6164829;23;20242;-87
2021/07/20 16:55:46;;;;;;;16.60;14.75;;;23.50;34.20;;;;;;6166221;23;20218;-86
2021/07/20 16:58:15;;;;;;;15.82;14.13;;;23.50;33.90;;;;;;6166147;23;20183;-89
2021/07/20 17:00:48;;;;;;;16.60;14.02;;;23.50;32.00;;;;;;6156894;23;20655;-89
2021/07/20 17:03:19;;;;;;;14.52;12.88;;;23.50;34.10;;;;;;6161775;23;20175;-90
2021/07/20 17:05:55;;;;;;;14.48;12.63;;;23.40;34.90;;;;;;6160557;23;20206;-91
2021/07/20 17:08:52;;;;;;;15.85;13.18;;;23.30;34.50;;;;;;6161488;23;20543;-89
2021/07/20 17:11:20;;;;;;;22.00;18.30;;;23.20;34.80;;;;;;6158545;23;20180;-91
2021/07/20 17:13:48;;;;;;;170.43;94.57;;;23.30;34.80;;;;;;6159448;23;20628;-90
2021/07/20 17:16:17;;;;;;;17.75;13.73;;;23.20;34.80;;;;;;6168251;23;20202;-89
2021/07/20 17:19:12;;;;;;;16.58;13.00;;;23.20;33.80;;;;;;6159995;23;20489;-89
2021/07/20 17:21:41;;;;;;;15.90;13.05;;;23.20;34.80;;;;;;6158935;23;20513;-88
2021/07/20 17:24:13;;;;;;;14.48;12.90;;;23.10;34.70;;;;;;6160817;23;20565;-88
2021/07/20 17:26:41;;;;;;;18.02;13.40;;;23.00;34.60;;;;;;6161583;23;20170;-87
2021/07/20 17:29:16;;;;;;;16.52;13.23;;;23.00;33.40;;;;;;6157945;23;20223;-89
2021/07/20 17:31:44;;;;;;;15.35;12.65;;;23.00;34.60;;;;;;6158443;23;20170;-88
2021/07/20 17:34:16;;;;;;;13.82;12.30;;;22.90;34.50;;;;;;6158013;23;20814;-89
2021/07/20 17:40:31;;;;;;;12.75;10.45;;;22.90;34.50;;;;;;6170903;23;20182;-89
2021/07/20 17:43:09;;;;;;;12.10;10.80;;;22.80;34.50;;;;;;6137173;23;20179;-88
2021/07/20 17:45:36;;;;;;;16.42;11.48;;;22.70;34.30;;;;;;6139081;23;20254;-87
2021/07/20 17:48:06;;;;;;;14.00;11.38;;;22.60;35.30;;;;;;6166450;23;20602;-87
2021/07/20 17:50:32;;;;;;;15.00;11.35;;;22.50;34.10;;;;;;6165174;23;20203;-90
2021/07/20 17:52:59;;;;;;;14.48;10.93;;;22.50;34.10;;;;;;6165525;23;20191;-90
2021/07/20 17:55:27;;;;;;;15.80;11.30;;;22.40;34.50;;;;;;6162896;23;20239;-87
2021/07/20 17:57:56;;;;;;;13.10;11.25;;;22.40;34.10;;;;;;6166249;23;20171;-88
2021/07/20 18:00:58;;;;;;;14.43;11.25;;;22.30;34.00;;;;;;6171708;23;20213;-88
2021/07/20 18:03:25;;;;;;;12.02;10.73;;;22.30;35.70;;;;;;6161674;23;20274;-86
2021/07/20 18:05:52;;;;;;;13.50;10.70;;;22.20;35.30;;;;;;6160906;23;20274;-88
2021/07/20 18:08:19;;;;;;;12.02;10.52;;;22.10;34.50;;;;;;6161950;23;20171;-89
2021/07/20 18:10:47;;;;;;;11.50;10.30;;;22.10;36.10;;;;;;6162042;23;20203;-87
2021/07/20 18:20:21;;;;;;;12.63;10.52;;;22.00;35.00;;;;;;6172558;23;20164;-85
2021/07/20 18:22:48;;;;;;;15.27;11.50;;;21.90;35.40;;;;;;6168432;23;20182;-87
2021/07/20 18:25:15;;;;;;;23.33;20.65;;;21.80;34.90;;;;;;6173359;23;20179;-86
2021/07/20 18:27:42;;;;;;;21.77;18.90;;;21.70;35.70;;;;;;6142865;23;20195;-85
2021/07/20 18:34:13;;;;;;;14.30;11.85;;;21.50;37.70;;;;;;6168890;23;20146;-89
2021/07/20 18:36:51;;;;;;;15.43;12.70;;;21.40;38.30;;;;;;6170201;23;20594;-87
2021/07/20 18:39:18;;;;;;;12.98;11.57;;;21.30;38.80;;;;;;6159276;23;20549;-91
2021/07/20 18:41:45;;;;;;;16.88;15.13;;;21.30;38.80;;;;;;6157273;23;20593;-89
2021/07/20 18:44:12;;;;;;;26.77;22.85;;;21.20;39.20;;;;;;6156875;23;20234;-92
2021/07/20 18:46:39;;;;;;;18.52;16.52;;;21.30;39.20;;;;;;6157921;23;20179;-90
2021/07/20 18:49:06;;;;;;;14.88;13.20;;;21.20;40.00;;;;;;6157803;23;20721;-91
2021/07/20 18:51:34;;;;;;;18.25;14.77;;;21.10;40.00;;;;;;6165595;23;20190;-89
2021/07/20 19:00:12;;;;;;;17.92;15.40;;;20.90;41.40;;;;;;6106184;23;20207;-86
2021/07/20 19:02:47;;;;;;;13.80;11.35;;;20.80;41.30;;;;;;6124504;23;20226;-90
2021/07/20 19:05:15;;;;;;;13.73;11.27;;;20.80;42.00;;;;;;6166342;23;20209;-89
2021/07/20 19:08:07;;;;;;;13.68;10.80;;;20.70;42.50;;;;;;6160317;23;20186;-88
2021/07/20 19:10:40;;;;;;;14.52;12.23;;;20.70;42.80;;;;;;6157835;23;20235;-89
2021/07/20 19:13:21;;;;;;;13.02;10.50;;;20.60;43.50;;;;;;6161327;23;20166;-91
2021/07/20 19:15:56;;;;;;;20.30;18.10;;;20.50;43.80;;;;;;6161476;23;20203;-88
2021/07/20 19:18:28;;;;;;;14.60;11.63;;;20.50;44.80;;;;;;6160196;23;20167;-89
2021/07/20 19:21:08;;;;;;;13.02;11.07;;;20.40;44.40;;;;;;6158619;23;20231;-90
2021/07/20 19:23:37;;;;;;;13.88;11.55;;;20.30;44.70;;;;;;6158811;23;20222;-92
2021/07/20 19:26:06;;;;;;;19.27;16.05;;;20.20;44.90;;;;;;6155780;23;20263;-91
2021/07/20 19:28:33;;;;;;;17.52;14.68;;;20.20;46.30;;;;;;6154733;23;20203;-93
2021/07/20 19:31:07;;;;;;;20.75;18.40;;;20.20;47.90;;;;;;6157317;23;20231;-92
2021/07/20 19:33:34;;;;;;;22.05;17.60;;;20.20;49.30;;;;;;6158255;23;20191;-91
2021/07/20 19:36:00;;;;;;;32.58;28.10;;;20.20;49.60;;;;;;6157964;23;20223;-91
2021/07/20 19:38:27;;;;;;;24.35;21.75;;;20.20;51.70;;;;;;6155265;23;20214;-91
2021/07/20 19:40:54;;;;;;;18.17;14.98;;;20.10;51.00;;;;;;6155911;23;20290;-90
2021/07/20 19:43:30;;;;;;;18.08;14.43;;;20.00;50.30;;;;;;6157971;23;20202;-92
2021/07/20 19:45:58;;;;;;;19.35;15.77;;;19.90;50.40;;;;;;6155218;23;20750;-90
2021/07/20 19:48:25;;;;;;;18.10;14.75;;;19.90;51.30;;;;;;6156843;23;20199;-92
2021/07/20 19:50:52;;;;;;;17.00;13.73;;;19.90;53.00;;;;;;6156380;23;20207;-91
2021/07/20 19:53:19;;;;;;;22.52;15.82;;;19.90;53.00;;;;;;6155285;23;20232;-91
2021/07/20 19:55:47;;;;;;;25.65;21.67;;;19.90;54.10;;;;;;6156920;23;20207;-90
2021/07/20 19:58:14;;;;;;;20.95;17.73;;;19.80;54.00;;;;;;6155455;23;20175;-90
2021/07/20 20:00:42;;;;;;;14.85;12.65;;;19.80;54.90;;;;;;6154875;23;20207;-89
2021/07/20 20:03:10;;;;;;;17.67;14.30;;;19.80;54.50;;;;;;6130173;23;20190;-89
2021/07/20 20:05:37;;;;;;;17.02;13.68;;;19.70;55.60;;;;;;6153924;23;20281;-90
2021/07/20 20:08:04;;;;;;;20.60;16.40;;;19.70;55.60;;;;;;6154566;23;20218;-89
2021/07/20 20:10:31;;;;;;;18.35;13.18;;;19.60;55.50;;;;;;6154681;23;20274;-90
2021/07/20 20:12:58;;;;;;;16.70;12.98;;;19.50;55.50;;;;;;6155263;23;20258;-89
2021/07/20 20:15:25;;;;;;;19.23;15.98;;;19.30;55.30;;;;;;6154267;23;20266;-89
2021/07/20 20:17:53;;;;;;;17.27;13.52;;;19.30;59.30;;;;;;6155344;23;20258;-89
2021/07/20 20:20:20;;;;;;;15.18;12.75;;;19.30;59.10;;;;;;6155580;23;20199;-90
2021/07/20 20:22:49;;;;;;;18.10;13.70;;;19.20;58.60;;;;;;6156089;23;20191;-91
2021/07/20 20:25:23;;;;;;;18.85;15.02;;;19.10;59.20;;;;;;6154492;23;20572;-90
2021/07/20 20:27:50;;;;;;;15.68;13.07;;;19.10;60.00;;;;;;6155052;23;20159;-90
2021/07/20 20:30:17;;;;;;;20.63;16.23;;;19.10;59.90;;;;;;6154307;23;20233;-90
2021/07/20 20:32:44;;;;;;;17.48;12.30;;;19.10;60.50;;;;;;6155206;23;20220;-90
2021/07/20 20:35:13;;;;;;;15.93;12.50;;;19.10;59.90;;;;;;6153775;23;20258;-91
2021/07/20 20:37:42;;;;;;;17.13;14.02;;;19.00;60.60;;;;;;6154437;23;20203;-90
2021/07/20 20:40:10;;;;;;;17.90;14.88;;;19.00;60.30;;;;;;6154272;23;20203;-90
2021/07/20 20:42:40;;;;;;;17.05;13.38;;;18.90;63.00;;;;;;6153420;23;20250;-90
2021/07/20 20:45:09;;;;;;;15.52;13.05;;;18.80;62.60;;;;;;6153712;23;20648;-90
2021/07/20 20:47:36;;;;;;;16.90;12.85;;;18.80;64.00;;;;;;6153838;23;21084;-89
2021/07/20 20:50:04;;;;;;;20.90;14.48;;;18.80;64.80;;;;;;6154286;23;20548;-90
2021/07/20 20:52:32;;;;;;;15.85;11.93;;;18.80;65.50;;;;;;6153528;23;20533;-90
2021/07/20 20:54:59;;;;;;;16.10;12.63;;;18.70;63.30;;;;;;6153300;23;20206;-89
2021/07/20 20:57:28;;;;;;;14.00;12.43;;;18.70;64.30;;;;;;6155017;23;20210;-89
2021/07/20 20:59:55;;;;;;;15.90;11.55;;;18.80;65.10;;;;;;6153451;23;20286;-90
2021/07/20 21:02:27;;;;;;;14.75;12.85;;;18.70;64.40;;;;;;6153103;23;20874;-90
2021/07/20 21:04:54;;;;;;;19.02;12.57;;;18.70;64.70;;;;;;6152851;23;20551;-90
2021/07/20 21:07:33;;;;;;;15.27;12.52;;;18.60;64.90;;;;;;6154003;23;20183;-89
2021/07/20 21:10:00;;;;;;;15.43;11.85;;;18.60;65.50;;;;;;6155599;23;20285;-89
2021/07/20 21:12:27;;;;;;;14.80;11.63;;;18.60;66.30;;;;;;6155937;23;20213;-89
2021/07/20 21:14:54;;;;;;;16.48;12.57;;;18.60;67.10;;;;;;6155087;23;20242;-90
2021/07/20 21:17:21;;;;;;;15.82;13.10;;;18.60;69.80;;;;;;6156174;23;20214;-92
2021/07/20 21:19:49;;;;;;;18.77;12.85;;;18.60;67.00;;;;;;6155406;23;20363;-90
2021/07/20 21:22:16;;;;;;;15.70;12.52;;;18.60;68.80;;;;;;6155631;23;20202;-91
2021/07/20 21:24:44;;;;;;;17.58;11.82;;;18.60;69.30;;;;;;6153955;23;20285;-90
2021/07/20 21:27:12;;;;;;;14.82;12.40;;;18.50;67.90;;;;;;6154699;23;20190;-90
2021/07/20 21:29:39;;;;;;;14.35;11.45;;;18.50;68.20;;;;;;6151384;23;20979;-89
2021/07/20 21:32:06;;;;;;;16.70;13.23;;;18.50;71.30;;;;;;6154279;23;20199;-92
2021/07/20 21:34:33;;;;;;;14.95;11.65;;;18.50;69.40;;;;;;6151115;23;20207;-92
2021/07/20 21:37:03;;;;;;;14.90;11.73;;;18.50;69.80;;;;;;6151630;23;20179;-91
2021/07/20 21:39:51;;;;;;;14.13;11.98;;;18.40;70.60;;;;;;6150656;23;20195;-91
2021/07/20 21:42:19;;;;;;;15.70;12.18;;;18.40;69.70;;;;;;6152527;23;20235;-91
2021/07/20 21:44:49;;;;;;;14.38;12.20;;;18.40;71.30;;;;;;6151125;23;20199;-91
2021/07/20 21:47:18;;;;;;;20.20;12.13;;;18.40;72.20;;;;;;6151586;23;20220;-91
2021/07/20 21:49:45;;;;;;;15.20;11.63;;;18.40;71.70;;;;;;6153477;23;20238;-90
2021/07/20 21:52:13;;;;;;;14.63;11.57;;;18.30;72.60;;;;;;6154776;23;20176;-90
2021/07/20 21:54:40;;;;;;;15.23;11.52;;;18.30;73.30;;;;;;6153853;23;20274;-90
2021/07/20 21:59:50;;;;;;;14.52;11.65;;;18.20;72.90;;;;;;6151026;23;20515;-90
2021/07/20 22:02:17;;;;;;;17.17;12.75;;;18.10;73.80;;;;;;6154190;23;20307;-91
2021/07/20 22:04:44;;;;;;;15.55;12.63;;;18.00;75.30;;;;;;6153375;23;20582;-91
2021/07/20 22:07:13;;;;;;;13.27;10.85;;;18.00;75.90;;;;;;6153758;23;20262;-91
2021/07/20 22:09:41;;;;;;;15.15;12.13;;;17.90;75.50;;;;;;6153295;23;20596;-90
2021/07/20 22:12:10;;;;;;;17.25;11.88;;;17.90;76.00;;;;;;6154293;23;20251;-90
2021/07/20 22:17:19;;;;;;;14.75;12.02;;;17.70;77.40;;;;;;6154053;23;20545;-91